sensor_id;sensor_type;location;lat;lon;timestamp;temperature;humidity
19403;DHT22;9837;48.888;8.998;2023-02-22T00:00:50;12.20;57.50
19403;DHT22;9837;48.888;8.998;2023-02-22T00:03:23;12.30;58.00
19403;DHT22;9837;48.888;8.998;2023-02-22T00:05:54;12.20;57.80
19403;DHT22;9837;48.888;8.998;2023-02-22T00:08:24;12.30;58.30
19403;DHT22;9837;48.888;8.998;2023-02-22T00:13:18;12.40;58.10
19403;DHT22;9837;48.888;8.998;2023-02-22T00:18:14;12.50;57.70
19403;DHT22;9837;48.888;8.998;2023-02-22T00:20:40;12.50;57.80
19403;DHT22;9837;48.888;8.998;2023-02-22T00:23:08;12.70;57.90
19403;DHT22;9837;48.888;8.998;2023-02-22T00:25:34;12.80;57.60
19403;DHT22;9837;48.888;8.998;2023-02-22T00:28:00;12.80;58.10
19403;DHT22;9837;48.888;8.998;2023-02-22T00:30:28;12.90;57.40
19403;DHT22;9837;48.888;8.998;2023-02-22T00:32:56;12.90;57.30
19403;DHT22;9837;48.888;8.998;2023-02-22T00:35:27;12.90;57.80
19403;DHT22;9837;48.888;8.998;2023-02-22T00:37:56;13.10;56.90
19403;DHT22;9837;48.888;8.998;2023-02-22T00:40:24;13.10;56.50
19403;DHT22;9837;48.888;8.998;2023-02-22T00:42:50;13.00;56.40
19403;DHT22;9837;48.888;8.998;2023-02-22T00:45:18;13.10;56.60
19403;DHT22;9837;48.888;8.998;2023-02-22T00:47:43;13.10;56.70
19403;DHT22;9837;48.888;8.998;2023-02-22T00:50:09;13.10;57.20
19403;DHT22;9837;48.888;8.998;2023-02-22T00:52:36;13.10;57.00
19403;DHT22;9837;48.888;8.998;2023-02-22T00:55:04;13.10;56.40
19403;DHT22;9837;48.888;8.998;2023-02-22T00:57:30;13.10;56.90
19403;DHT22;9837;48.888;8.998;2023-02-22T01:02:22;13.10;56.30
19403;DHT22;9837;48.888;8.998;2023-02-22T01:07:13;13.20;56.10
19403;DHT22;9837;48.888;8.998;2023-02-22T01:14:32;13.30;56.00
19403;DHT22;9837;48.888;8.998;2023-02-22T01:16:58;13.40;55.50
19403;DHT22;9837;48.888;8.998;2023-02-22T01:19:24;13.50;55.00
19403;DHT22;9837;48.888;8.998;2023-02-22T01:24:16;13.40;55.10
19403;DHT22;9837;48.888;8.998;2023-02-22T01:26:43;13.30;55.40
19403;DHT22;9837;48.888;8.998;2023-02-22T01:29:14;13.20;55.50
19403;DHT22;9837;48.888;8.998;2023-02-22T01:31:41;13.20;55.60
19403;DHT22;9837;48.888;8.998;2023-02-22T01:41:45;12.80;56.50
19403;DHT22;9837;48.888;8.998;2023-02-22T01:44:32;12.70;56.80
19403;DHT22;9837;48.888;8.998;2023-02-22T01:47:00;12.70;56.70
19403;DHT22;9837;48.888;8.998;2023-02-22T01:49:43;12.70;56.80
19403;DHT22;9837;48.888;8.998;2023-02-22T01:52:14;12.70;57.00
19403;DHT22;9837;48.888;8.998;2023-02-22T01:54:43;12.70;57.50
19403;DHT22;9837;48.888;8.998;2023-02-22T01:57:23;12.80;57.30
19403;DHT22;9837;48.888;8.998;2023-02-22T01:59:53;12.70;57.00
19403;DHT22;9837;48.888;8.998;2023-02-22T02:04:50;12.50;57.30
19403;DHT22;9837;48.888;8.998;2023-02-22T02:07:18;12.40;57.40
19403;DHT22;9837;48.888;8.998;2023-02-22T02:09:57;12.40;57.50
19403;DHT22;9837;48.888;8.998;2023-02-22T02:12:24;12.40;58.00
19403;DHT22;9837;48.888;8.998;2023-02-22T02:17:19;12.10;57.80
19403;DHT22;9837;48.888;8.998;2023-02-22T02:20:08;12.10;58.10
19403;DHT22;9837;48.888;8.998;2023-02-22T02:22:46;12.10;58.70
19403;DHT22;9837;48.888;8.998;2023-02-22T02:28:05;12.20;58.40
19403;DHT22;9837;48.888;8.998;2023-02-22T02:31:10;12.20;58.30
19403;DHT22;9837;48.888;8.998;2023-02-22T02:34:45;12.20;57.30
19403;DHT22;9837;48.888;8.998;2023-02-22T02:37:19;12.20;57.90
19403;DHT22;9837;48.888;8.998;2023-02-22T02:42:59;12.00;58.10
19403;DHT22;9837;48.888;8.998;2023-02-22T02:45:32;11.90;58.60
19403;DHT22;9837;48.888;8.998;2023-02-22T02:48:01;12.00;58.70
19403;DHT22;9837;48.888;8.998;2023-02-22T02:50:35;12.10;58.60
19403;DHT22;9837;48.888;8.998;2023-02-22T02:53:04;12.00;58.70
19403;DHT22;9837;48.888;8.998;2023-02-22T02:55:33;12.00;58.80
19403;DHT22;9837;48.888;8.998;2023-02-22T03:00:31;12.00;58.90
19403;DHT22;9837;48.888;8.998;2023-02-22T03:03:36;12.00;59.40
19403;DHT22;9837;48.888;8.998;2023-02-22T03:11:19;11.90;59.20
19403;DHT22;9837;48.888;8.998;2023-02-22T03:16:20;11.90;59.20
19403;DHT22;9837;48.888;8.998;2023-02-22T03:19:10;12.00;58.80
19403;DHT22;9837;48.888;8.998;2023-02-22T03:24:52;12.10;59.30
19403;DHT22;9837;48.888;8.998;2023-02-22T03:27:26;9.70;58.30
19403;DHT22;9837;48.888;8.998;2023-02-22T03:29:55;11.50;60.10
19403;DHT22;9837;48.888;8.998;2023-02-22T03:32:28;11.40;60.60
19403;DHT22;9837;48.888;8.998;2023-02-22T03:35:06;11.50;60.20
19403;DHT22;9837;48.888;8.998;2023-02-22T03:37:35;11.40;60.10
19403;DHT22;9837;48.888;8.998;2023-02-22T03:40:05;11.40;60.90
19403;DHT22;9837;48.888;8.998;2023-02-22T03:42:53;11.60;59.90
19403;DHT22;9837;48.888;8.998;2023-02-22T03:45:20;11.50;59.90
19403;DHT22;9837;48.888;8.998;2023-02-22T03:47:50;11.60;59.90
19403;DHT22;9837;48.888;8.998;2023-02-22T03:50:21;11.60;59.60
19403;DHT22;9837;48.888;8.998;2023-02-22T03:55:14;11.60;59.60
19403;DHT22;9837;48.888;8.998;2023-02-22T03:57:48;11.60;59.60
19403;DHT22;9837;48.888;8.998;2023-02-22T04:00:18;11.60;59.40
19403;DHT22;9837;48.888;8.998;2023-02-22T04:10:04;11.60;59.40
19403;DHT22;9837;48.888;8.998;2023-02-22T04:24:43;11.60;58.90
19403;DHT22;9837;48.888;8.998;2023-02-22T04:27:09;11.50;59.40
19403;DHT22;9837;48.888;8.998;2023-02-22T04:29:35;11.50;59.10
19403;DHT22;9837;48.888;8.998;2023-02-22T04:32:00;11.50;59.60
19403;DHT22;9837;48.888;8.998;2023-02-22T04:34:26;10.80;60.70
19403;DHT22;9837;48.888;8.998;2023-02-22T04:53:53;11.00;60.60
19403;DHT22;9837;48.888;8.998;2023-02-22T05:01:14;10.90;60.80
19403;DHT22;9837;48.888;8.998;2023-02-22T05:06:06;10.90;60.60
19403;DHT22;9837;48.888;8.998;2023-02-22T05:08:32;10.80;60.50
19403;DHT22;9837;48.888;8.998;2023-02-22T05:10:57;10.80;60.70
19403;DHT22;9837;48.888;8.998;2023-02-22T05:13:23;10.80;61.10
19403;DHT22;9837;48.888;8.998;2023-02-22T05:15:48;10.70;61.60
19403;DHT22;9837;48.888;8.998;2023-02-22T05:18:14;10.70;62.30
19403;DHT22;9837;48.888;8.998;2023-02-22T05:20:40;10.70;61.80
19403;DHT22;9837;48.888;8.998;2023-02-22T05:23:05;10.70;61.80
19403;DHT22;9837;48.888;8.998;2023-02-22T05:25:32;10.70;62.50
19403;DHT22;9837;48.888;8.998;2023-02-22T05:28:04;10.80;62.50
19403;DHT22;9837;48.888;8.998;2023-02-22T05:30:32;10.80;61.70
19403;DHT22;9837;48.888;8.998;2023-02-22T05:32:59;10.80;62.40
19403;DHT22;9837;48.888;8.998;2023-02-22T05:35:25;10.90;61.50
19403;DHT22;9837;48.888;8.998;2023-02-22T05:40:18;10.90;61.50
19403;DHT22;9837;48.888;8.998;2023-02-22T05:42:45;10.80;62.30
19403;DHT22;9837;48.888;8.998;2023-02-22T05:45:15;10.70;62.30
19403;DHT22;9837;48.888;8.998;2023-02-22T05:47:41;10.70;62.50
19403;DHT22;9837;48.888;8.998;2023-02-22T05:50:07;10.70;62.00
19403;DHT22;9837;48.888;8.998;2023-02-22T05:52:33;10.80;61.80
19403;DHT22;9837;48.888;8.998;2023-02-22T05:54:58;10.90;62.50
19403;DHT22;9837;48.888;8.998;2023-02-22T05:57:24;10.90;62.10
19403;DHT22;9837;48.888;8.998;2023-02-22T05:59:49;11.00;61.60
19403;DHT22;9837;48.888;8.998;2023-02-22T06:02:15;11.20;60.20
19403;DHT22;9837;48.888;8.998;2023-02-22T06:04:44;11.20;60.10
19403;DHT22;9837;48.888;8.998;2023-02-22T06:09:35;11.10;60.30
19403;DHT22;9837;48.888;8.998;2023-02-22T06:12:01;11.10;60.30
19403;DHT22;9837;48.888;8.998;2023-02-22T06:14:26;11.10;61.00
19403;DHT22;9837;48.888;8.998;2023-02-22T06:16:53;11.20;60.90
19403;DHT22;9837;48.888;8.998;2023-02-22T06:19:19;11.10;60.00
19403;DHT22;9837;48.888;8.998;2023-02-22T06:21:55;11.10;59.90
19403;DHT22;9837;48.888;8.998;2023-02-22T06:26:54;11.20;59.80
19403;DHT22;9837;48.888;8.998;2023-02-22T06:29:21;11.20;60.40
19403;DHT22;9837;48.888;8.998;2023-02-22T06:31:47;11.10;59.70
19403;DHT22;9837;48.888;8.998;2023-02-22T06:34:12;11.20;60.30
19403;DHT22;9837;48.888;8.998;2023-02-22T06:36:38;11.10;59.80
19403;DHT22;9837;48.888;8.998;2023-02-22T06:39:03;11.20;59.90
19403;DHT22;9837;48.888;8.998;2023-02-22T06:41:29;11.10;60.40
19403;DHT22;9837;48.888;8.998;2023-02-22T06:43:54;11.20;60.50
19403;DHT22;9837;48.888;8.998;2023-02-22T06:46:20;11.30;59.70
19403;DHT22;9837;48.888;8.998;2023-02-22T06:48:46;12.20;60.90
19403;DHT22;9837;48.888;8.998;2023-02-22T06:51:11;11.40;60.30
19403;DHT22;9837;48.888;8.998;2023-02-22T06:53:37;11.40;60.30
19403;DHT22;9837;48.888;8.998;2023-02-22T06:56:03;11.50;60.20
19403;DHT22;9837;48.888;8.998;2023-02-22T06:58:28;11.50;60.00
19403;DHT22;9837;48.888;8.998;2023-02-22T07:00:54;11.60;59.30
19403;DHT22;9837;48.888;8.998;2023-02-22T07:05:45;11.60;58.40
19403;DHT22;9837;48.888;8.998;2023-02-22T07:08:11;11.60;58.10
19403;DHT22;9837;48.888;8.998;2023-02-22T07:10:38;11.60;57.80
19403;DHT22;9837;48.888;8.998;2023-02-22T07:13:06;11.60;58.30
19403;DHT22;9837;48.888;8.998;2023-02-22T07:15:33;11.60;58.00
19403;DHT22;9837;48.888;8.998;2023-02-22T07:17:59;11.60;58.10
19403;DHT22;9837;48.888;8.998;2023-02-22T07:20:27;11.60;58.10
19403;DHT22;9837;48.888;8.998;2023-02-22T07:22:53;11.60;58.20
19403;DHT22;9837;48.888;8.998;2023-02-22T07:25:18;11.60;58.50
19403;DHT22;9837;48.888;8.998;2023-02-22T07:27:44;11.60;58.60
19403;DHT22;9837;48.888;8.998;2023-02-22T07:30:23;11.60;58.50
19403;DHT22;9837;48.888;8.998;2023-02-22T07:32:55;11.60;58.70
19403;DHT22;9837;48.888;8.998;2023-02-22T07:37:50;11.60;58.80
19403;DHT22;9837;48.888;8.998;2023-02-22T07:40:16;11.70;58.70
19403;DHT22;9837;48.888;8.998;2023-02-22T07:43:00;11.70;59.20
19403;DHT22;9837;48.888;8.998;2023-02-22T07:45:28;11.90;58.60
19403;DHT22;9837;48.888;8.998;2023-02-22T07:47:54;12.00;58.40
19403;DHT22;9837;48.888;8.998;2023-02-22T07:50:21;12.10;58.30
19403;DHT22;9837;48.888;8.998;2023-02-22T07:52:49;12.20;57.80
19403;DHT22;9837;48.888;8.998;2023-02-22T07:55:17;12.30;57.70
19403;DHT22;9837;48.888;8.998;2023-02-22T07:57:48;12.30;58.30
19403;DHT22;9837;48.888;8.998;2023-02-22T08:00:19;12.40;58.40
19403;DHT22;9837;48.888;8.998;2023-02-22T08:02:46;12.40;57.90
19403;DHT22;9837;48.888;8.998;2023-02-22T08:05:13;12.40;57.90
19403;DHT22;9837;48.888;8.998;2023-02-22T08:07:39;12.40;57.60
19403;DHT22;9837;48.888;8.998;2023-02-22T08:10:06;12.40;58.20
19403;DHT22;9837;48.888;8.998;2023-02-22T08:12:33;12.50;58.30
19403;DHT22;9837;48.888;8.998;2023-02-22T08:14:59;12.50;58.30
19403;DHT22;9837;48.888;8.998;2023-02-22T08:17:24;12.70;58.10
19403;DHT22;9837;48.888;8.998;2023-02-22T08:19:50;12.90;57.10
19403;DHT22;9837;48.888;8.998;2023-02-22T08:22:15;12.90;57.60
19403;DHT22;9837;48.888;8.998;2023-02-22T08:27:07;13.00;56.80
19403;DHT22;9837;48.888;8.998;2023-02-22T08:31:59;13.30;56.50
19403;DHT22;9837;48.888;8.998;2023-02-22T08:34:25;13.20;56.90
19403;DHT22;9837;48.888;8.998;2023-02-22T08:36:51;13.30;56.70
19403;DHT22;9837;48.888;8.998;2023-02-22T08:39:16;13.30;56.60
19403;DHT22;9837;48.888;8.998;2023-02-22T08:41:42;13.40;56.50
19403;DHT22;9837;48.888;8.998;2023-02-22T08:44:08;13.70;56.40
19403;DHT22;9837;48.888;8.998;2023-02-22T08:46:33;13.90;56.10
19403;DHT22;9837;48.888;8.998;2023-02-22T08:48:59;14.10;55.80
19403;DHT22;9837;48.888;8.998;2023-02-22T08:51:25;14.30;55.70
19403;DHT22;9837;48.888;8.998;2023-02-22T08:53:51;14.50;55.50
19403;DHT22;9837;48.888;8.998;2023-02-22T08:56:18;14.70;54.90
19403;DHT22;9837;48.888;8.998;2023-02-22T08:58:43;14.80;54.80
19403;DHT22;9837;48.888;8.998;2023-02-22T09:01:09;15.20;53.50
19403;DHT22;9837;48.888;8.998;2023-02-22T09:03:34;15.20;54.10
19403;DHT22;9837;48.888;8.998;2023-02-22T09:06:00;15.50;53.10
19403;DHT22;9837;48.888;8.998;2023-02-22T09:10:52;15.60;52.20
19403;DHT22;9837;48.888;8.998;2023-02-22T09:13:18;15.70;52.50
19403;DHT22;9837;48.888;8.998;2023-02-22T09:15:43;15.00;52.80
19403;DHT22;9837;48.888;8.998;2023-02-22T09:18:11;15.00;53.30
19403;DHT22;9837;48.888;8.998;2023-02-22T09:20:38;14.60;55.10
19403;DHT22;9837;48.888;8.998;2023-02-22T09:23:06;14.70;55.80
19403;DHT22;9837;48.888;8.998;2023-02-22T09:25:33;15.00;54.40
19403;DHT22;9837;48.888;8.998;2023-02-22T09:28:00;15.20;54.20
19403;DHT22;9837;48.888;8.998;2023-02-22T09:30:29;15.40;53.60
19403;DHT22;9837;48.888;8.998;2023-02-22T09:33:03;15.50;53.50
19403;DHT22;9837;48.888;8.998;2023-02-22T09:35:29;15.50;53.50
19403;DHT22;9837;48.888;8.998;2023-02-22T09:37:56;15.70;52.10
19403;DHT22;9837;48.888;8.998;2023-02-22T09:40:23;15.70;52.10
19403;DHT22;9837;48.888;8.998;2023-02-22T09:43:29;16.00;51.90
19403;DHT22;9837;48.888;8.998;2023-02-22T09:48:33;16.00;53.00
19403;DHT22;9837;48.888;8.998;2023-02-22T09:51:02;16.20;52.90
19403;DHT22;9837;48.888;8.998;2023-02-22T09:53:39;16.30;52.60
19403;DHT22;9837;48.888;8.998;2023-02-22T09:56:11;16.60;51.20
19403;DHT22;9837;48.888;8.998;2023-02-22T09:58:42;16.80;50.50
19403;DHT22;9837;48.888;8.998;2023-02-22T10:06:36;17.40;49.10
19403;DHT22;9837;48.888;8.998;2023-02-22T10:09:04;17.40;49.60
19403;DHT22;9837;48.888;8.998;2023-02-22T10:11:48;17.60;48.80
19403;DHT22;9837;48.888;8.998;2023-02-22T10:14:28;17.70;48.70
19403;DHT22;9837;48.888;8.998;2023-02-22T10:25:14;18.00;48.70
19403;DHT22;9837;48.888;8.998;2023-02-22T10:32:44;18.20;48.30
19403;DHT22;9837;48.888;8.998;2023-02-22T10:35:27;18.30;48.50
19403;DHT22;9837;48.888;8.998;2023-02-22T10:38:18;18.30;48.00
19403;DHT22;9837;48.888;8.998;2023-02-22T10:41:20;17.80;50.10
19403;DHT22;9837;48.888;8.998;2023-02-22T10:43:48;18.30;48.40
19403;DHT22;9837;48.888;8.998;2023-02-22T10:46:17;18.30;49.00
19403;DHT22;9837;48.888;8.998;2023-02-22T10:48:47;18.50;48.90
19403;DHT22;9837;48.888;8.998;2023-02-22T10:51:13;18.50;48.90
19403;DHT22;9837;48.888;8.998;2023-02-22T10:53:39;18.50;48.50
19403;DHT22;9837;48.888;8.998;2023-02-22T10:58:50;18.30;48.90
19403;DHT22;9837;48.888;8.998;2023-02-22T11:01:37;17.90;49.30
19403;DHT22;9837;48.888;8.998;2023-02-22T11:06:37;17.30;50.00
19403;DHT22;9837;48.888;8.998;2023-02-22T11:11:42;17.10;51.50
19403;DHT22;9837;48.888;8.998;2023-02-22T11:14:09;17.30;51.20
19403;DHT22;9837;48.888;8.998;2023-02-22T11:16:36;17.20;51.30
19403;DHT22;9837;48.888;8.998;2023-02-22T11:19:20;17.30;51.30
19403;DHT22;9837;48.888;8.998;2023-02-22T11:21:50;17.50;51.10
19403;DHT22;9837;48.888;8.998;2023-02-22T11:24:18;19.10;51.40
19403;DHT22;9837;48.888;8.998;2023-02-22T11:26:54;17.60;50.60
19403;DHT22;9837;48.888;8.998;2023-02-22T11:29:34;17.60;50.70
19403;DHT22;9837;48.888;8.998;2023-02-22T11:32:10;17.80;51.20
19403;DHT22;9837;48.888;8.998;2023-02-22T11:34:38;18.10;50.20
19403;DHT22;9837;48.888;8.998;2023-02-22T11:39:48;18.10;49.60
19403;DHT22;9837;48.888;8.998;2023-02-22T11:42:28;18.20;50.10
19403;DHT22;9837;48.888;8.998;2023-02-22T11:47:34;18.00;49.70
19403;DHT22;9837;48.888;8.998;2023-02-22T11:50:00;18.00;49.90
19403;DHT22;9837;48.888;8.998;2023-02-22T11:52:32;17.60;49.70
19403;DHT22;9837;48.888;8.998;2023-02-22T11:58:03;17.70;50.20
19403;DHT22;9837;48.888;8.998;2023-02-22T12:06:38;18.40;49.30
19403;DHT22;9837;48.888;8.998;2023-02-22T12:12:01;18.90;47.40
19403;DHT22;9837;48.888;8.998;2023-02-22T12:17:31;18.80;47.80
19403;DHT22;9837;48.888;8.998;2023-02-22T12:20:14;18.20;49.40
19403;DHT22;9837;48.888;8.998;2023-02-22T12:22:54;18.40;48.90
19403;DHT22;9837;48.888;8.998;2023-02-22T12:25:27;18.40;49.50
19403;DHT22;9837;48.888;8.998;2023-02-22T12:30:34;17.70;50.20
19403;DHT22;9837;48.888;8.998;2023-02-22T12:33:08;17.70;50.80
19403;DHT22;9837;48.888;8.998;2023-02-22T12:35:51;17.90;50.70
19403;DHT22;9837;48.888;8.998;2023-02-22T12:38:32;18.10;50.10
19403;DHT22;9837;48.888;8.998;2023-02-22T12:41:24;18.70;49.00
19403;DHT22;9837;48.888;8.998;2023-02-22T12:44:13;18.70;49.40
19403;DHT22;9837;48.888;8.998;2023-02-22T12:46:45;18.70;48.60
19403;DHT22;9837;48.888;8.998;2023-02-22T12:55:09;18.70;49.00
19403;DHT22;9837;48.888;8.998;2023-02-22T12:57:55;18.90;48.50
19403;DHT22;9837;48.888;8.998;2023-02-22T13:03:42;19.40;48.20
19403;DHT22;9837;48.888;8.998;2023-02-22T13:09:24;19.70;47.30
19403;DHT22;9837;48.888;8.998;2023-02-22T13:20:38;18.60;49.50
19403;DHT22;9837;48.888;8.998;2023-02-22T13:23:44;18.30;50.10
19403;DHT22;9837;48.888;8.998;2023-02-22T13:26:24;18.50;50.40
19403;DHT22;9837;48.888;8.998;2023-02-22T13:40:01;19.30;46.80
19403;DHT22;9837;48.888;8.998;2023-02-22T13:51:22;19.40;46.50
19403;DHT22;9837;48.888;8.998;2023-02-22T13:56:25;19.00;47.10
19403;DHT22;9837;48.888;8.998;2023-02-22T13:58:58;19.00;47.10
19403;DHT22;9837;48.888;8.998;2023-02-22T14:01:47;19.00;47.70
19403;DHT22;9837;48.888;8.998;2023-02-22T14:07:00;18.90;47.20
19403;DHT22;9837;48.888;8.998;2023-02-22T14:09:48;19.00;46.60
19403;DHT22;9837;48.888;8.998;2023-02-22T14:15:14;19.20;46.90
19403;DHT22;9837;48.888;8.998;2023-02-22T14:17:45;19.30;46.80
19403;DHT22;9837;48.888;8.998;2023-02-22T14:20:18;19.40;46.40
19403;DHT22;9837;48.888;8.998;2023-02-22T14:22:46;19.40;46.40
19403;DHT22;9837;48.888;8.998;2023-02-22T14:25:34;19.50;46.30
19403;DHT22;9837;48.888;8.998;2023-02-22T14:28:02;19.40;45.00
19403;DHT22;9837;48.888;8.998;2023-02-22T14:30:31;19.40;45.60
19403;DHT22;9837;48.888;8.998;2023-02-22T14:32:57;19.40;45.10
19403;DHT22;9837;48.888;8.998;2023-02-22T14:35:28;19.40;45.70
19403;DHT22;9837;48.888;8.998;2023-02-22T14:37:58;19.50;45.80
19403;DHT22;9837;48.888;8.998;2023-02-22T14:40:28;19.60;45.70
19403;DHT22;9837;48.888;8.998;2023-02-22T14:43:05;19.70;45.70
19403;DHT22;9837;48.888;8.998;2023-02-22T14:45:35;19.80;45.20
19403;DHT22;9837;48.888;8.998;2023-02-22T14:48:17;19.60;45.20
19403;DHT22;9837;48.888;8.998;2023-02-22T14:50:58;19.50;45.60
19403;DHT22;9837;48.888;8.998;2023-02-22T14:53:32;19.50;45.20
19403;DHT22;9837;48.888;8.998;2023-02-22T14:56:14;19.50;45.10
19403;DHT22;9837;48.888;8.998;2023-02-22T14:58:45;19.60;45.70
19403;DHT22;9837;48.888;8.998;2023-02-22T15:01:29;19.50;46.10
19403;DHT22;9837;48.888;8.998;2023-02-22T15:04:15;19.50;46.40
19403;DHT22;9837;48.888;8.998;2023-02-22T15:06:41;19.40;46.50
19403;DHT22;9837;48.888;8.998;2023-02-22T15:09:17;19.20;46.40
19403;DHT22;9837;48.888;8.998;2023-02-22T15:12:32;19.10;47.10
19403;DHT22;9837;48.888;8.998;2023-02-22T15:14:40;18.80;46.80
19403;DHT22;9837;48.888;8.998;2023-02-22T15:17:20;18.70;47.30
19403;DHT22;9837;48.888;8.998;2023-02-22T15:22:23;18.90;46.70
19403;DHT22;9837;48.888;8.998;2023-02-22T15:25:06;19.10;46.70
19403;DHT22;9837;48.888;8.998;2023-02-22T15:27:36;19.20;46.10
19403;DHT22;9837;48.888;8.998;2023-02-22T15:30:06;19.20;45.70
19403;DHT22;9837;48.888;8.998;2023-02-22T15:32:38;19.10;45.90
19403;DHT22;9837;48.888;8.998;2023-02-22T15:37:45;18.70;46.20
19403;DHT22;9837;48.888;8.998;2023-02-22T15:40:18;18.40;46.20
19403;DHT22;9837;48.888;8.998;2023-02-22T15:42:49;18.40;47.10
19403;DHT22;9837;48.888;8.998;2023-02-22T15:45:20;18.20;47.00
19403;DHT22;9837;48.888;8.998;2023-02-22T15:47:47;18.30;47.40
19403;DHT22;9837;48.888;8.998;2023-02-22T15:50:32;18.40;46.80
19403;DHT22;9837;48.888;8.998;2023-02-22T15:53:00;18.20;46.50
19403;DHT22;9837;48.888;8.998;2023-02-22T15:55:36;17.90;46.00
19403;DHT22;9837;48.888;8.998;2023-02-22T16:00:43;17.70;46.80
19403;DHT22;9837;48.888;8.998;2023-02-22T16:03:11;17.90;46.70
19403;DHT22;9837;48.888;8.998;2023-02-22T16:05:51;18.10;46.20
19403;DHT22;9837;48.888;8.998;2023-02-22T16:08:22;18.10;46.70
19403;DHT22;9837;48.888;8.998;2023-02-22T16:10:58;18.20;46.50
19403;DHT22;9837;48.888;8.998;2023-02-22T16:13:27;18.00;46.30
19403;DHT22;9837;48.888;8.998;2023-02-22T16:18:37;19.90;48.00
19403;DHT22;9837;48.888;8.998;2023-02-22T16:21:09;17.80;46.90
19403;DHT22;9837;48.888;8.998;2023-02-22T16:23:51;17.80;47.50
19403;DHT22;9837;48.888;8.998;2023-02-22T16:26:29;17.70;47.70
19403;DHT22;9837;48.888;8.998;2023-02-22T16:29:07;17.70;48.20
19403;DHT22;9837;48.888;8.998;2023-02-22T16:31:37;17.70;48.90
19403;DHT22;9837;48.888;8.998;2023-02-22T16:34:06;17.50;48.80
19403;DHT22;9837;48.888;8.998;2023-02-22T16:36:40;17.50;49.30
19403;DHT22;9837;48.888;8.998;2023-02-22T16:39:10;17.20;49.60
19403;DHT22;9837;48.888;8.998;2023-02-22T16:41:38;17.10;50.10
19403;DHT22;9837;48.888;8.998;2023-02-22T16:44:04;17.00;49.90
19403;DHT22;9837;48.888;8.998;2023-02-22T16:46:32;17.00;50.50
19403;DHT22;9837;48.888;8.998;2023-02-22T16:48:57;16.90;50.90
19403;DHT22;9837;48.888;8.998;2023-02-22T16:51:28;16.80;51.00
19403;DHT22;9837;48.888;8.998;2023-02-22T16:53:57;16.80;51.30
19403;DHT22;9837;48.888;8.998;2023-02-22T16:56:27;16.70;50.90
19403;DHT22;9837;48.888;8.998;2023-02-22T17:01:20;16.60;51.00
19403;DHT22;9837;48.888;8.998;2023-02-22T17:03:48;16.50;51.30
19403;DHT22;9837;48.888;8.998;2023-02-22T17:06:15;16.50;51.90
19403;DHT22;9837;48.888;8.998;2023-02-22T17:08:41;16.40;52.10
19403;DHT22;9837;48.888;8.998;2023-02-22T17:11:08;16.30;52.00
19403;DHT22;9837;48.888;8.998;2023-02-22T17:13:34;16.20;52.30
19403;DHT22;9837;48.888;8.998;2023-02-22T17:16:00;16.10;52.70
19403;DHT22;9837;48.888;8.998;2023-02-22T17:18:27;16.20;53.30
19403;DHT22;9837;48.888;8.998;2023-02-22T17:20:55;16.10;53.30
19403;DHT22;9837;48.888;8.998;2023-02-22T17:23:22;16.00;53.60
19403;DHT22;9837;48.888;8.998;2023-02-22T17:25:56;15.80;53.50
19403;DHT22;9837;48.888;8.998;2023-02-22T17:28:24;15.80;54.10
19403;DHT22;9837;48.888;8.998;2023-02-22T17:30:51;15.80;54.10
19403;DHT22;9837;48.888;8.998;2023-02-22T17:33:22;15.70;54.20
19403;DHT22;9837;48.888;8.998;2023-02-22T17:35:52;15.70;53.90
19403;DHT22;9837;48.888;8.998;2023-02-22T17:38:18;15.60;54.40
19403;DHT22;9837;48.888;8.998;2023-02-22T17:40:45;15.60;54.60
19403;DHT22;9837;48.888;8.998;2023-02-22T17:43:17;15.60;54.60
19403;DHT22;9837;48.888;8.998;2023-02-22T17:45:43;15.50;54.20
19403;DHT22;9837;48.888;8.998;2023-02-22T17:48:11;15.50;54.90
19403;DHT22;9837;48.888;8.998;2023-02-22T17:50:38;15.50;54.80
19403;DHT22;9837;48.888;8.998;2023-02-22T17:53:04;15.40;55.00
19403;DHT22;9837;48.888;8.998;2023-02-22T17:55:31;15.30;55.00
19403;DHT22;9837;48.888;8.998;2023-02-22T17:57:58;15.30;55.20
19403;DHT22;9837;48.888;8.998;2023-02-22T18:00:29;15.20;54.90
19403;DHT22;9837;48.888;8.998;2023-02-22T18:03:09;15.20;55.40
19403;DHT22;9837;48.888;8.998;2023-02-22T18:05:47;15.70;55.70
19403;DHT22;9837;48.888;8.998;2023-02-22T18:08:14;15.10;55.10
19403;DHT22;9837;48.888;8.998;2023-02-22T18:10:40;15.00;55.00
19403;DHT22;9837;48.888;8.998;2023-02-22T18:13:12;15.10;55.60
19403;DHT22;9837;48.888;8.998;2023-02-22T18:15:38;15.00;55.60
19403;DHT22;9837;48.888;8.998;2023-02-22T18:18:04;15.00;55.40
19403;DHT22;9837;48.888;8.998;2023-02-22T18:20:31;15.00;55.50
19403;DHT22;9837;48.888;8.998;2023-02-22T18:23:04;14.90;56.00
19403;DHT22;9837;48.888;8.998;2023-02-22T18:25:33;15.00;56.10
19403;DHT22;9837;48.888;8.998;2023-02-22T18:28:00;14.90;56.30
19403;DHT22;9837;48.888;8.998;2023-02-22T18:30:25;14.90;56.40
19403;DHT22;9837;48.888;8.998;2023-02-22T18:32:51;14.80;56.40
19403;DHT22;9837;48.888;8.998;2023-02-22T18:35:16;14.80;56.70
19403;DHT22;9837;48.888;8.998;2023-02-22T18:37:42;14.80;57.00
19403;DHT22;9837;48.888;8.998;2023-02-22T18:40:09;14.80;56.90
19403;DHT22;9837;48.888;8.998;2023-02-22T18:42:36;14.80;56.90
19403;DHT22;9837;48.888;8.998;2023-02-22T18:45:02;14.80;57.40
19403;DHT22;9837;48.888;8.998;2023-02-22T18:47:30;14.80;57.80
19403;DHT22;9837;48.888;8.998;2023-02-22T18:49:56;14.70;57.80
19403;DHT22;9837;48.888;8.998;2023-02-22T18:52:22;14.80;57.70
19403;DHT22;9837;48.888;8.998;2023-02-22T18:54:48;14.80;58.20
19403;DHT22;9837;48.888;8.998;2023-02-22T18:57:14;14.80;58.30
19403;DHT22;9837;48.888;8.998;2023-02-22T18:59:41;14.80;58.40
19403;DHT22;9837;48.888;8.998;2023-02-22T19:02:15;14.90;57.80
19403;DHT22;9837;48.888;8.998;2023-02-22T19:07:09;14.90;57.70
19403;DHT22;9837;48.888;8.998;2023-02-22T19:09:34;15.00;58.20
19403;DHT22;9837;48.888;8.998;2023-02-22T19:12:01;15.00;58.20
19403;DHT22;9837;48.888;8.998;2023-02-22T19:14:26;14.90;58.20
19403;DHT22;9837;48.888;8.998;2023-02-22T19:19:21;14.90;57.60
19403;DHT22;9837;48.888;8.998;2023-02-22T19:21:47;15.00;58.10
19403;DHT22;9837;48.888;8.998;2023-02-22T19:24:13;15.00;58.00
19403;DHT22;9837;48.888;8.998;2023-02-22T19:26:43;14.90;57.60
19403;DHT22;9837;48.888;8.998;2023-02-22T19:29:14;14.90;58.20
19403;DHT22;9837;48.888;8.998;2023-02-22T19:31:40;14.90;58.30
19403;DHT22;9837;48.888;8.998;2023-02-22T19:34:09;14.90;58.40
19403;DHT22;9837;48.888;8.998;2023-02-22T19:36:40;14.90;58.40
19403;DHT22;9837;48.888;8.998;2023-02-22T19:39:06;14.90;58.50
19403;DHT22;9837;48.888;8.998;2023-02-22T19:41:31;14.90;58.60
19403;DHT22;9837;48.888;8.998;2023-02-22T19:43:57;14.90;58.70
19403;DHT22;9837;48.888;8.998;2023-02-22T19:46:23;14.90;58.80
19403;DHT22;9837;48.888;8.998;2023-02-22T19:48:50;14.90;58.20
19403;DHT22;9837;48.888;8.998;2023-02-22T19:51:18;15.00;58.80
19403;DHT22;9837;48.888;8.998;2023-02-22T19:53:44;15.00;58.70
19403;DHT22;9837;48.888;8.998;2023-02-22T19:56:16;15.00;58.70
19403;DHT22;9837;48.888;8.998;2023-02-22T19:58:44;15.00;59.00